This is the latest recevied weather packets stored in our database for station/object N4WFF. If no packets are shown the sender has not sent any weather packets the latest 1 day(s).
| Time | Temp. | Humidity | Pressure | Rain* | Wind** | Luminosity | Snow |
|---|---|---|---|---|---|---|---|
| 1778022356 | 25.56° C | 61% | 1013.4 hPa | 0 mm | 2.24 m/s, 221° | 106 W/m² | - |
| 1778022056 | 25.56° C | 60% | 1013.5 hPa | 0 mm | 1.79 m/s, 190° | 142 W/m² | - |
| 1778021755 | 25.56° C | 60% | 1013.6 hPa | 0 mm | 1.79 m/s, 193° | 185 W/m² | - |
| 1778021455 | 26.11° C | 59% | 1013.6 hPa | 0 mm | 1.79 m/s, 218° | 57 W/m² | - |
| 1778021155 | 26.67° C | 58% | 1013.6 hPa | 0 mm | 2.68 m/s, 217° | 88 W/m² | - |
| 1778020855 | 26.67° C | 58% | 1013.6 hPa | 0 mm | 1.79 m/s, 226° | 105 W/m² | - |
| 1778020556 | 26.11° C | 58% | 1013.6 hPa | 0 mm | 1.79 m/s, 222° | 266 W/m² | - |
| 1778020256 | 26.11° C | 59% | 1013.5 hPa | 0 mm | 1.79 m/s, 212° | 229 W/m² | - |
| 1778019956 | 25.56° C | 60% | 1013.5 hPa | 0 mm | 2.24 m/s, 216° | 182 W/m² | - |
| 1778019655 | 26.11° C | 60% | 1013.4 hPa | 0 mm | 2.68 m/s, 198° | 116 W/m² | - |
| 1778019355 | 26.11° C | 59% | 1013.5 hPa | 0 mm | 3.13 m/s, 237° | 194 W/m² | - |
| 1778019056 | 26.67° C | 56% | 1013.3 hPa | 0 mm | 2.68 m/s, 191° | 178 W/m² | - |
| 1778018755 | 26.67° C | 57% | 1013.4 hPa | 0 mm | 2.68 m/s, 223° | 350 W/m² | - |
| 1778018456 | 26.11° C | 59% | 1013.4 hPa | 0 mm | 1.79 m/s, 217° | 352 W/m² | - |
| 1778018156 | 26.67° C | 58% | 1013.5 hPa | 0 mm | 1.79 m/s, 196° | 148 W/m² | - |
| 1778017857 | 26.67° C | 57% | 1013.4 hPa | 0 mm | 3.13 m/s, 194° | 400 W/m² | - |
| 1778017556 | 26.67° C | 57% | 1013.3 hPa | 0 mm | 2.24 m/s, 222° | 453 W/m² | - |
| 1778017256 | 26.67° C | 57% | 1013.4 hPa | 0 mm | 2.24 m/s, 182° | 212 W/m² | - |
| 1778016955 | 26.67° C | 57% | 1013.4 hPa | 0 mm | 1.34 m/s, 207° | 407 W/m² | - |
| 1778016656 | 27.22° C | 57% | 1013.4 hPa | 0 mm | 3.13 m/s, 190° | 210 W/m² | - |
| 1778016356 | 27.22° C | 56% | 1013.5 hPa | 0 mm | 2.24 m/s, 176° | 619 W/m² | - |
| 1778016065 | 26.67° C | 58% | 1013.4 hPa | 0 mm | 1.79 m/s, 193° | 614 W/m² | - |
| 1778015756 | 26.67° C | 57% | 1013.5 hPa | 0 mm | 2.68 m/s, 227° | 275 W/m² | - |
| 1778015455 | 26.67° C | 59% | 1013.5 hPa | 0 mm | 1.79 m/s, 220° | 223 W/m² | - |
| 1778015155 | 27.22° C | 57% | 1013.4 hPa | 0 mm | 2.68 m/s, 228° | 216 W/m² | - |
* Rain latest hour (hover to see other rain measurements)
** Current wind speed in m/s (hover to see current wind gust speed)